地図

経路データ

SID SEASON NUMBER BASIN SUBBASIN NAME ISO_TIME NATURE LAT LON WMO_WIND WMO_PRES WMO_AGENCY TRACK_TYPE DIST2LAND LANDFALL IFLAG USA_AGENCY USA_ATCF_ID USA_LAT USA_LON USA_RECORD USA_STATUS USA_WIND USA_PRES USA_SSHS USA_R34_NE USA_R34_SE USA_R34_SW USA_R34_NW USA_R50_NE USA_R50_SE USA_R50_SW USA_R50_NW USA_R64_NE USA_R64_SE USA_R64_SW USA_R64_NW USA_POCI USA_ROCI USA_RMW USA_EYE TOKYO_LAT TOKYO_LON TOKYO_GRADE TOKYO_WIND TOKYO_PRES TOKYO_R50_DIR TOKYO_R50_LONG TOKYO_R50_SHORT TOKYO_R30_DIR TOKYO_R30_LONG TOKYO_R30_SHORT TOKYO_LAND CMA_LAT CMA_LON CMA_CAT CMA_WIND CMA_PRES HKO_LAT HKO_LON HKO_CAT HKO_WIND HKO_PRES NEWDELHI_LAT NEWDELHI_LON NEWDELHI_GRADE NEWDELHI_WIND NEWDELHI_PRES NEWDELHI_CI NEWDELHI_DP NEWDELHI_POCI REUNION_LAT REUNION_LON REUNION_TYPE REUNION_WIND REUNION_PRES REUNION_TNUM REUNION_CI REUNION_RMW REUNION_R34_NE REUNION_R34_SE REUNION_R34_SW REUNION_R34_NW REUNION_R50_NE REUNION_R50_SE REUNION_R50_SW REUNION_R50_NW REUNION_R64_NE REUNION_R64_SE REUNION_R64_SW REUNION_R64_NW BOM_LAT BOM_LON BOM_TYPE BOM_WIND BOM_PRES BOM_TNUM BOM_CI BOM_RMW BOM_R34_NE BOM_R34_SE BOM_R34_SW BOM_R34_NW BOM_R50_NE BOM_R50_SE BOM_R50_SW BOM_R50_NW BOM_R64_NE BOM_R64_SE BOM_R64_SW BOM_R64_NW BOM_ROCI BOM_POCI BOM_EYE BOM_POS_METHOD BOM_PRES_METHOD NADI_LAT NADI_LON NADI_CAT NADI_WIND NADI_PRES WELLINGTON_LAT WELLINGTON_LON WELLINGTON_WIND WELLINGTON_PRES DS824_LAT DS824_LON DS824_STAGE DS824_WIND DS824_PRES TD9636_LAT TD9636_LON TD9636_STAGE TD9636_WIND TD9636_PRES TD9635_LAT TD9635_LON TD9635_WIND TD9635_PRES TD9635_ROCI NEUMANN_LAT NEUMANN_LON NEUMANN_CLASS NEUMANN_WIND NEUMANN_PRES MLC_LAT MLC_LON MLC_CLASS MLC_WIND MLC_PRES USA_GUST BOM_GUST BOM_GUST_PER REUNION_GUST REUNION_GUST_PER USA_SEAHGT USA_SEARAD_NE USA_SEARAD_SE USA_SEARAD_SW USA_SEARAD_NW STORM_SPEED STORM_DIR
1933243N18304 1933 47 NA NA NOT_NAMED 1933-08-31 06:00:00 TS 18.1000 -56.4000 55 hurdat_atl main 965 876 O_____________ hurdat_atl AL111933 18.1000 -56.4000 TS 55 0 18 283
1933243N18304 1933 47 NA NA NOT_NAMED 1933-08-31 09:00:00 TS 18.3009 -57.3471 main 876 780 P_____________ AL111933 18.3009 -57.3471 TS 57 0 18 283
1933243N18304 1933 47 NA NA NOT_NAMED 1933-08-31 12:00:00 TS 18.5000 -58.3000 60 hurdat_atl main 770 675 O_____________ hurdat_atl AL111933 18.5000 -58.3000 TS 60 0 19 282
1933243N18304 1933 47 NA NA NOT_NAMED 1933-08-31 15:00:00 TS 18.6996 -59.2577 main 665 582 P_____________ AL111933 18.6996 -59.2577 TS 62 0 18 283
1933243N18304 1933 47 NA NA NOT_NAMED 1933-08-31 18:00:00 TS 18.9000 -60.2000 65 hurdat_atl main 571 480 O_____________ hurdat_atl AL111933 18.9000 -60.2000 HU 65 1 18 282
1933243N18304 1933 47 NA NA NOT_NAMED 1933-08-31 21:00:00 TS 19.0845 -61.1080 main 480 391 P_____________ AL111933 19.0845 -61.1080 HU 67 1 17 283
1933243N18304 1933 47 NA NA NOT_NAMED 1933-09-01 00:00:00 TS 19.3000 -62.0000 70 hurdat_atl main 391 314 O_____________ hurdat_atl AL111933 19.3000 -62.0000 HU 70 1 18 286
1933243N18304 1933 47 NA NA NOT_NAMED 1933-09-01 03:00:00 TS 19.5847 -62.9075 main 314 252 P_____________ AL111933 19.5847 -62.9075 HU 72 1 18 289
1933243N18304 1933 47 NA NA NOT_NAMED 1933-09-01 06:00:00 TS 19.9000 -63.8000 75 hurdat_atl main 252 222 O_____________ hurdat_atl AL111933 19.9000 -63.8000 HU 75 1 18 290
1933243N18304 1933 47 NA NA NOT_NAMED 1933-09-01 09:00:00 TS 20.1997 -64.6728 main 222 218 P_____________ AL111933 20.1997 -64.6728 HU 77 1 17 291
1933243N18304 1933 47 NA NA NOT_NAMED 1933-09-01 12:00:00 TS 20.5000 -65.5000 80 hurdat_atl main 235 234 O_____________ hurdat_atl AL111933 20.5000 -65.5000 HU 80 1 16 291
1933243N18304 1933 47 NA NA NOT_NAMED 1933-09-01 15:00:00 TS 20.7922 -66.2878 main 268 268 P_____________ AL111933 20.7922 -66.2878 HU 82 1 15 293
1933243N18304 1933 47 NA NA NOT_NAMED 1933-09-01 18:00:00 TS 21.1000 -67.0000 85 hurdat_atl main 302 294 O_____________ hurdat_atl AL111933 21.1000 -67.0000 HU 85 2 14 298
1933243N18304 1933 47 NA NA NOT_NAMED 1933-09-01 21:00:00 TS 21.4570 -67.6226 main 303 291 P_____________ AL111933 21.4570 -67.6226 HU 87 2 13 302
1933243N18304 1933 47 NA NA NOT_NAMED 1933-09-02 00:00:00 TS 21.8000 -68.2000 90 hurdat_atl main 302 298 O_____________ hurdat_atl AL111933 21.8000 -68.2000 HU 90 2 13 300
1933243N18304 1933 47 NA NA NOT_NAMED 1933-09-02 03:00:00 TS 22.0722 -68.7928 main 306 298 P_____________ AL111933 22.0722 -68.7928 HU 92 2 12 294
1933243N18304 1933 47 NA NA NOT_NAMED 1933-09-02 06:00:00 TS 22.3000 -69.4000 95 hurdat_atl main 306 301 O_____________ hurdat_atl AL111933 22.3000 -69.4000 HU 95 2 12 291
1933243N18304 1933 47 NA NA NOT_NAMED 1933-09-02 09:00:00 TS 22.4996 -70.0280 main 308 290 P_____________ AL111933 22.4996 -70.0280 HU 97 3 13 288
1933243N18304 1933 47 NA NA NOT_NAMED 1933-09-02 12:00:00 TS 22.7000 -70.7000 100 hurdat_atl main 290 251 O_____________ hurdat_atl AL111933 22.7000 -70.7000 HU 100 3 14 289
1933243N18304 1933 47 NA NA NOT_NAMED 1933-09-02 15:00:00 TS 22.9347 -71.4278 main 251 236 P_____________ AL111933 22.9347 -71.4278 HU 102 3 15 290
1933243N18304 1933 47 NA NA NOT_NAMED 1933-09-02 18:00:00 TS 23.2000 -72.2000 105 hurdat_atl main 238 234 O_____________ hurdat_atl AL111933 23.2000 -72.2000 HU 105 3 15 291
1933243N18304 1933 47 NA NA NOT_NAMED 1933-09-02 21:00:00 TS 23.4847 -72.9928 main 257 257 P_____________ AL111933 23.4847 -72.9928 HU 107 3 16 292
1933243N18304 1933 47 NA NA NOT_NAMED 1933-09-03 00:00:00 TS 23.8000 -73.8000 110 hurdat_atl main 297 297 O_____________ hurdat_atl AL111933 23.8000 -73.8000 HU 110 3 16 293
1933243N18304 1933 47 NA NA NOT_NAMED 1933-09-03 03:00:00 TS 24.1273 -74.6154 main 317 232 P_____________ AL111933 24.1273 -74.6154 HU 112 3 16 296
1933243N18304 1933 47 NA NA NOT_NAMED 1933-09-03 06:00:00 TS 24.5000 -75.4000 115 hurdat_atl main 232 167 O_____________ hurdat_atl AL111933 24.5000 -75.4000 HU 115 4 16 301
1933243N18304 1933 47 NA NA NOT_NAMED 1933-09-03 09:00:00 TS 24.9722 -76.1371 main 170 123 P_____________ AL111933 24.9722 -76.1371 HU 117 4 16 305
1933243N18304 1933 47 NA NA NOT_NAMED 1933-09-03 12:00:00 TS 25.4000 -76.8000 120 945 hurdat_atl main 123 89 O_____________ hurdat_atl AL111933 25.4000 -76.8000 HU 120 945 4 13 300
1933243N18304 1933 47 NA NA NOT_NAMED 1933-09-03 15:00:00 TS 25.6295 -77.3735 main 82 73 P_____________ AL111933 25.6295 -77.3735 HU 117 4 11 292
1933243N18304 1933 47 NA NA NOT_NAMED 1933-09-03 18:00:00 TS 25.8000 -77.9000 115 hurdat_atl main 78 78 O_____________ hurdat_atl AL111933 25.8000 -77.9000 HU 115 4 10 292
1933243N18304 1933 47 NA NA NOT_NAMED 1933-09-03 21:00:00 TS 26.0242 -78.4324 main 104 104 P_____________ AL111933 26.0242 -78.4324 HU 112 3 11 297
1933243N18304 1933 47 NA NA NOT_NAMED 1933-09-04 00:00:00 TS 26.3000 -79.0000 110 hurdat_atl main 109 45 O_____________ hurdat_atl AL111933 26.3000 -79.0000 HU 110 3 13 300
1933243N18304 1933 47 NA NA NOT_NAMED 1933-09-04 03:00:00 TS 26.6661 -79.6659 main 31 0 P_____________ AL111933 26.6661 -79.6659 HU 110 3 14 301
1933243N18304 1933 47 NA NA NOT_NAMED 1933-09-04 05:00:00 TS 26.9000 -80.1000 110 948 hurdat_atl main 0 0 O_____________ hurdat_atl AL111933 26.9000 -80.1000 L HU 110 948 3 13 301
1933243N18304 1933 47 NA NA NOT_NAMED 1933-09-04 06:00:00 TS 27.0000 -80.3000 110 948 hurdat_atl main 0 0 O_____________ hurdat_atl AL111933 27.0000 -80.3000 HU 110 948 3 13 300
1933243N18304 1933 47 NA NA NOT_NAMED 1933-09-04 09:00:00 TS 27.3428 -80.9722 main 0 0 P_____________ AL111933 27.3428 -80.9722 HU 87 2 14 301
1933243N18304 1933 47 NA NA NOT_NAMED 1933-09-04 12:00:00 TS 27.7000 -81.6000 65 hurdat_atl main 0 0 O_____________ hurdat_atl AL111933 27.7000 -81.6000 HU 65 1 11 306
1933243N18304 1933 47 NA NA NOT_NAMED 1933-09-04 15:00:00 TS 28.0146 -82.0179 main 0 0 P_____________ AL111933 28.0146 -82.0179 HU 60 0 9 314
1933243N18304 1933 47 NA NA NOT_NAMED 1933-09-04 18:00:00 TS 28.3000 -82.3000 55 hurdat_atl main 0 0 O_____________ hurdat_atl AL111933 28.3000 -82.3000 TS 55 0 7 320
1933243N18304 1933 47 NA NA NOT_NAMED 1933-09-04 21:00:00 TS 28.5479 -82.5307 main 0 0 P_____________ AL111933 28.5479 -82.5307 TS 55 0 6 325
1933243N18304 1933 47 NA GM NOT_NAMED 1933-09-05 00:00:00 TS 28.8000 -82.7000 55 hurdat_atl main 9 0 O_____________ hurdat_atl AL111933 28.8000 -82.7000 TS 55 0 6 335
1933243N18304 1933 47 NA GM NOT_NAMED 1933-09-05 03:00:00 TS 29.0982 -82.8318 main 0 0 P_____________ AL111933 29.0982 -82.8318 TS 55 0 7 336
1933243N18304 1933 47 NA GM NOT_NAMED 1933-09-05 04:00:00 TS 29.2000 -82.9000 55 hurdat_atl main 0 0 O_____________ hurdat_atl AL111933 29.2000 -82.9000 L TS 55 0 8 322
1933243N18304 1933 47 NA NA NOT_NAMED 1933-09-05 06:00:00 TS 29.4000 -83.1000 55 hurdat_atl main 0 0 O_____________ hurdat_atl AL111933 29.4000 -83.1000 TS 55 0 7 326
1933243N18304 1933 47 NA NA NOT_NAMED 1933-09-05 09:00:00 TS 29.7064 -83.2980 main 0 0 P_____________ AL111933 29.7064 -83.2980 TS 52 0 7 337
1933243N18304 1933 47 NA NA NOT_NAMED 1933-09-05 12:00:00 TS 30.0000 -83.4000 50 hurdat_atl main 0 0 O_____________ hurdat_atl AL111933 30.0000 -83.4000 TS 50 0 6 344
1933243N18304 1933 47 NA NA NOT_NAMED 1933-09-05 15:00:00 TS 30.2650 -83.4875 main 0 0 P_____________ AL111933 30.2650 -83.4875 TS 50 0 5 350
1933243N18304 1933 47 NA NA NOT_NAMED 1933-09-05 18:00:00 TS 30.5000 -83.5000 50 hurdat_atl main 0 0 O_____________ hurdat_atl AL111933 30.5000 -83.5000 TS 50 0 4 5
1933243N18304 1933 47 NA NA NOT_NAMED 1933-09-05 21:00:00 TS 30.7075 -83.4375 main 0 0 P_____________ AL111933 30.7075 -83.4375 TS 50 0 4 23
1933243N18304 1933 47 NA NA NOT_NAMED 1933-09-06 00:00:00 TS 30.9000 -83.3000 50 hurdat_atl main 0 0 O_____________ hurdat_atl AL111933 30.9000 -83.3000 TS 50 0 5 35
1933243N18304 1933 47 NA NA NOT_NAMED 1933-09-06 03:00:00 TS 31.1000 -83.1150 main 0 0 P_____________ AL111933 31.1000 -83.1150 TS 50 0 5 41
1933243N18304 1933 47 NA NA NOT_NAMED 1933-09-06 06:00:00 TS 31.3000 -82.9000 50 hurdat_atl main 0 0 O_____________ hurdat_atl AL111933 31.3000 -82.9000 TS 50 0 6 43
1933243N18304 1933 47 NA NA NOT_NAMED 1933-09-06 09:00:00 TS 31.5001 -82.6701 main 0 0 P_____________ AL111933 31.5001 -82.6701 TS 50 0 5 40
1933243N18304 1933 47 NA NA NOT_NAMED 1933-09-06 12:00:00 TS 31.7000 -82.5000 50 hurdat_atl main 0 0 O_____________ hurdat_atl AL111933 31.7000 -82.5000 TS 50 0 4 23
1933243N18304 1933 47 NA NA NOT_NAMED 1933-09-06 15:00:00 TS 31.9074 -82.4698 main 0 0 P_____________ AL111933 31.9074 -82.4698 TS 45 0 4 0
1933243N18304 1933 47 NA NA NOT_NAMED 1933-09-06 18:00:00 TS 32.1000 -82.5000 40 hurdat_atl main 0 0 O_____________ hurdat_atl AL111933 32.1000 -82.5000 TS 40 0 4 0
1933243N18304 1933 47 NA NA NOT_NAMED 1933-09-06 21:00:00 TS 32.2575 -82.5000 main 0 0 P_____________ AL111933 32.2575 -82.5000 TS 37 0 3 0
1933243N18304 1933 47 NA NA NOT_NAMED 1933-09-07 00:00:00 TS 32.4000 -82.5000 35 hurdat_atl main 0 0 O_____________ hurdat_atl AL111933 32.4000 -82.5000 TS 35 0 3 5
1933243N18304 1933 47 NA NA NOT_NAMED 1933-09-07 03:00:00 TS 32.5500 -82.5000 main 0 0 P_____________ AL111933 32.5500 -82.5000 TS 32 -1 3 0
1933243N18304 1933 47 NA NA NOT_NAMED 1933-09-07 06:00:00 TS 32.7000 -82.5000 30 hurdat_atl main 0 0 O_____________ hurdat_atl AL111933 32.7000 -82.5000 TD 30 -1 3 5
1933243N18304 1933 47 NA NA NOT_NAMED 1933-09-07 09:00:00 TS 32.8425 -82.5000 main 0 0 P_____________ AL111933 32.8425 -82.5000 TD 27 -1 3 0
1933243N18304 1933 47 NA NA NOT_NAMED 1933-09-07 12:00:00 TS 33.0000 -82.5000 25 hurdat_atl main 0 0 O_____________ hurdat_atl AL111933 33.0000 -82.5000 TD 25 -1 3 0
1933243N18304 1933 47 NA NA NOT_NAMED 1933-09-07 15:00:00 TS 33.1900 -82.5000 main 0 0 P_____________ AL111933 33.1900 -82.5000 TD 22 -1 4 0
1933243N18304 1933 47 NA NA NOT_NAMED 1933-09-07 18:00:00 TS 33.4000 -82.5000 20 hurdat_atl main 0 O_____________ hurdat_atl AL111933 33.4000 -82.5000 TD 20 -1 4 0

IBTrACS Databaseについて

本データベースは、米国NOAAが公開する1842年以降の世界の熱帯低気圧のベストトラックデータアーカイブInternational Best Track Archive for Climate Stewardship (IBTrACS)を、ウェブで閲覧しやすい形式に変換したものです。

最終更新日:2021-12-08